KEWB/EWB METAR and TAF weather

Enter ICAO airport designator
Station Type Date Time Source
KEWB METAR 2020/01/19 13:53 UTC NOAA

KEWB 191353Z 25006KT 8SM CLR 02/01 A2964 RMK AO2 SLP037 T00220011


Station Type Date Time Source
KEWB Decoded METAR 2020/01/19 13:53 UTC NOAA

NEW BEDFORD REGIONAL AIRPORT, MA, United States (KEWB) 41-41N 070-58W 23M
Jan 19, 2020 - 08:53 AM EST / 2020.01.19 1353 UTC
Wind: from the WSW (250 degrees) at 7 MPH (6 KT):0
Visibility: 8 mile(s):0
Sky conditions: clear
Temperature: 36.0 F (2.2 C)
Dew Point: 34.0 F (1.1 C)
Relative Humidity: 92%
Pressure (altimeter): 29.64 in. Hg (1003 hPa)
ob: KEWB 191353Z 25006KT 8SM CLR 02/01 A2964 RMK AO2 SLP037 T00220011
cycle: 14

Station Type Date Time Source
KEWB TAF UTC NOAA

Error!

Example: see airport list